Terminal Aerodrome Forecast
Issued by NWS Mt. Holly, NJ

Home | Current Version | Previous Version | Text Only | Print | Product List | Glossary On
Versions: 1 2 3 4 5 6 7 8 9 10 11 12 13 14 15 16
000
FTUS41 KPHI 040554
TAFTTN
TAF
KTTN 040554Z 0406/0506 23005KT P6SM BKN120
     FM040630 28009G18KT 3SM -TSRA BKN050CB
     FM040745 VRB03KT P6SM BKN080
      TEMPO 0410/0412 5SM BR
     FM041500 24010G21KT P6SM BKN040 PROB30 0420/0422 5SM -TSRA
      OVC035CB
     FM042200 27009G18KT P6SM BKN050
     FM050000 30004KT P6SM SCT060=

USA.gov is the U.S. government's official web portal to all federal, state and local government web resources and services.